sensor_id;sensor_type;location;lat;lon;timestamp;pressure;altitude;pressure_sealevel;temperature;humidity
35778;BME280;21899;42.662;23.316;2023-03-14T00:00:08;94631.09;;;2.51;70.05
35778;BME280;21899;42.662;23.316;2023-03-14T00:02:34;94623.50;;;2.49;70.08
35778;BME280;21899;42.662;23.316;2023-03-14T00:05:00;94615.00;;;2.44;70.42
35778;BME280;21899;42.662;23.316;2023-03-14T00:07:27;94622.16;;;2.43;70.99
35778;BME280;21899;42.662;23.316;2023-03-14T00:09:56;94617.09;;;2.38;71.21
35778;BME280;21899;42.662;23.316;2023-03-14T00:12:22;94613.56;;;2.34;71.68
35778;BME280;21899;42.662;23.316;2023-03-14T00:14:47;94601.09;;;2.23;71.98
35778;BME280;21899;42.662;23.316;2023-03-14T00:17:12;94590.41;;;2.19;72.40
35778;BME280;21899;42.662;23.316;2023-03-14T00:19:38;94596.56;;;2.23;72.42
35778;BME280;21899;42.662;23.316;2023-03-14T00:22:04;94592.41;;;2.22;72.33
35778;BME280;21899;42.662;23.316;2023-03-14T00:24:29;94588.22;;;2.21;72.41
35778;BME280;21899;42.662;23.316;2023-03-14T00:26:55;94586.22;;;2.18;72.62
35778;BME280;21899;42.662;23.316;2023-03-14T00:29:20;94583.56;;;2.18;72.39
35778;BME280;21899;42.662;23.316;2023-03-14T00:31:45;94564.41;;;2.09;72.58
35778;BME280;21899;42.662;23.316;2023-03-14T00:34:11;94576.50;;;2.10;72.57
35778;BME280;21899;42.662;23.316;2023-03-14T00:36:36;94573.53;;;2.12;72.54
35778;BME280;21899;42.662;23.316;2023-03-14T00:39:02;94565.50;;;2.08;72.33
35778;BME280;21899;42.662;23.316;2023-03-14T00:41:27;94549.19;;;1.94;72.27
35778;BME280;21899;42.662;23.316;2023-03-14T00:43:52;94563.84;;;2.04;72.59
35778;BME280;21899;42.662;23.316;2023-03-14T00:46:18;94562.53;;;1.98;74.19
35778;BME280;21899;42.662;23.316;2023-03-14T00:48:46;94558.66;;;1.95;74.49
35778;BME280;21899;42.662;23.316;2023-03-14T00:51:12;94569.41;;;1.90;74.27
35778;BME280;21899;42.662;23.316;2023-03-14T00:53:40;94562.41;;;1.94;73.41
35778;BME280;21899;42.662;23.316;2023-03-14T00:56:10;94559.94;;;1.89;72.77
35778;BME280;21899;42.662;23.316;2023-03-14T00:58:36;94547.88;;;1.88;72.00
35778;BME280;21899;42.662;23.316;2023-03-14T01:01:10;94563.03;;;1.91;71.71
35778;BME280;21899;42.662;23.316;2023-03-14T01:03:37;94557.53;;;1.84;72.57
35778;BME280;21899;42.662;23.316;2023-03-14T01:06:14;94549.94;;;1.83;72.59
35778;BME280;21899;42.662;23.316;2023-03-14T01:08:41;94552.91;;;1.81;72.31
35778;BME280;21899;42.662;23.316;2023-03-14T01:11:15;94544.06;;;1.77;73.10
35778;BME280;21899;42.662;23.316;2023-03-14T01:13:41;94552.25;;;1.84;73.25
35778;BME280;21899;42.662;23.316;2023-03-14T01:16:09;94534.63;;;1.76;73.15
35778;BME280;21899;42.662;23.316;2023-03-14T01:18:35;94537.84;;;1.82;73.57
35778;BME280;21899;42.662;23.316;2023-03-14T01:21:01;94531.78;;;1.81;74.04
35778;BME280;21899;42.662;23.316;2023-03-14T01:23:27;94518.34;;;1.74;73.77
35778;BME280;21899;42.662;23.316;2023-03-14T01:25:52;94525.59;;;1.77;74.25
35778;BME280;21899;42.662;23.316;2023-03-14T01:28:18;94526.38;;;1.78;74.59
35778;BME280;21899;42.662;23.316;2023-03-14T01:30:43;94534.75;;;1.80;74.38
35778;BME280;21899;42.662;23.316;2023-03-14T01:33:08;94526.44;;;1.69;74.92
35778;BME280;21899;42.662;23.316;2023-03-14T01:35:34;94522.75;;;1.70;75.02
35778;BME280;21899;42.662;23.316;2023-03-14T01:37:59;94526.59;;;1.73;75.81
35778;BME280;21899;42.662;23.316;2023-03-14T01:40:25;94505.09;;;1.62;75.66
35778;BME280;21899;42.662;23.316;2023-03-14T01:42:57;94510.38;;;1.62;76.14
35778;BME280;21899;42.662;23.316;2023-03-14T01:48:23;94498.94;;;1.58;76.64
35778;BME280;21899;42.662;23.316;2023-03-14T01:50:49;94507.72;;;1.62;76.46
35778;BME280;21899;42.662;23.316;2023-03-14T01:53:15;94509.41;;;1.67;76.83
35778;BME280;21899;42.662;23.316;2023-03-14T01:55:40;94507.09;;;1.65;76.56
35778;BME280;21899;42.662;23.316;2023-03-14T01:58:06;94512.38;;;1.65;76.34
35778;BME280;21899;42.662;23.316;2023-03-14T02:00:32;94501.59;;;1.58;76.14
35778;BME280;21899;42.662;23.316;2023-03-14T02:03:05;94503.13;;;1.59;76.60
35778;BME280;21899;42.662;23.316;2023-03-14T02:05:35;94497.09;;;1.59;76.35
35778;BME280;21899;42.662;23.316;2023-03-14T02:08:06;94504.22;;;1.58;75.74
35778;BME280;21899;42.662;23.316;2023-03-14T02:10:37;94509.81;;;1.57;75.85
35778;BME280;21899;42.662;23.316;2023-03-14T02:13:04;94507.06;;;1.53;75.43
35778;BME280;21899;42.662;23.316;2023-03-14T02:15:30;94497.16;;;1.50;75.37
35778;BME280;21899;42.662;23.316;2023-03-14T02:17:57;94508.03;;;1.49;75.26
35778;BME280;21899;42.662;23.316;2023-03-14T02:26:43;94490.28;;;1.37;76.02
35778;BME280;21899;42.662;23.316;2023-03-14T02:29:10;94492.53;;;1.47;76.12
35778;BME280;21899;42.662;23.316;2023-03-14T02:31:36;94489.78;;;1.44;76.39
35778;BME280;21899;42.662;23.316;2023-03-14T02:34:02;94489.78;;;1.44;76.55
35778;BME280;21899;42.662;23.316;2023-03-14T02:36:29;94486.34;;;1.43;76.73
35778;BME280;21899;42.662;23.316;2023-03-14T02:39:33;94495.19;;;1.47;76.00
35778;BME280;21899;42.662;23.316;2023-03-14T02:42:00;94505.72;;;1.47;75.03
35778;BME280;21899;42.662;23.316;2023-03-14T02:44:25;94505.94;;;1.42;75.23
35778;BME280;21899;42.662;23.316;2023-03-14T02:46:51;94506.13;;;1.37;74.95
35778;BME280;21899;42.662;23.316;2023-03-14T02:49:16;94500.31;;;1.23;75.19
35778;BME280;21899;42.662;23.316;2023-03-14T02:51:43;94495.84;;;1.23;75.77
35778;BME280;21899;42.662;23.316;2023-03-14T02:54:10;94495.25;;;1.18;75.60
35778;BME280;21899;42.662;23.316;2023-03-14T02:56:36;94503.59;;;1.20;75.77
35778;BME280;21899;42.662;23.316;2023-03-14T02:59:05;94503.41;;;1.25;75.91
35778;BME280;21899;42.662;23.316;2023-03-14T03:01:31;94505.41;;;1.28;75.45
35778;BME280;21899;42.662;23.316;2023-03-14T03:03:56;94507.25;;;1.27;75.16
35778;BME280;21899;42.662;23.316;2023-03-14T03:06:21;94505.41;;;1.28;75.06
35778;BME280;21899;42.662;23.316;2023-03-14T03:08:47;94501.09;;;1.23;75.28
35778;BME280;21899;42.662;23.316;2023-03-14T03:11:12;94504.94;;;1.26;74.60
35778;BME280;21899;42.662;23.316;2023-03-14T03:13:38;94506.31;;;1.32;74.53
35778;BME280;21899;42.662;23.316;2023-03-14T03:16:04;94501.66;;;1.29;74.80
35778;BME280;21899;42.662;23.316;2023-03-14T03:18:29;94485.28;;;1.23;74.52
35778;BME280;21899;42.662;23.316;2023-03-14T03:20:55;94493.53;;;1.22;74.12
35778;BME280;21899;42.662;23.316;2023-03-14T03:23:20;94502.19;;;1.22;74.90
35778;BME280;21899;42.662;23.316;2023-03-14T03:25:49;94494.03;;;1.15;74.33
35778;BME280;21899;42.662;23.316;2023-03-14T03:28:16;94483.44;;;1.03;74.24
35778;BME280;21899;42.662;23.316;2023-03-14T03:30:41;94501.81;;;1.12;74.37
35778;BME280;21899;42.662;23.316;2023-03-14T03:33:08;94495.19;;;1.06;74.42
35778;BME280;21899;42.662;23.316;2023-03-14T03:35:33;94485.28;;;1.03;74.73
35778;BME280;21899;42.662;23.316;2023-03-14T03:37:59;94503.66;;;1.11;74.58
35778;BME280;21899;42.662;23.316;2023-03-14T03:40:24;94498.06;;;1.13;75.06
35778;BME280;21899;42.662;23.316;2023-03-14T03:42:50;94493.19;;;1.03;75.28
35778;BME280;21899;42.662;23.316;2023-03-14T03:45:15;94496.75;;;1.07;76.00
35778;BME280;21899;42.662;23.316;2023-03-14T03:47:41;94503.41;;;1.04;75.82
35778;BME280;21899;42.662;23.316;2023-03-14T03:50:07;94504.19;;;1.05;76.25
35778;BME280;21899;42.662;23.316;2023-03-14T03:52:32;94500.63;;;1.01;77.04
35778;BME280;21899;42.662;23.316;2023-03-14T03:54:58;94508.53;;;1.01;76.63
35778;BME280;21899;42.662;23.316;2023-03-14T03:57:23;94504.56;;;0.95;77.10
35778;BME280;21899;42.662;23.316;2023-03-14T03:59:49;94510.28;;;0.97;76.78
35778;BME280;21899;42.662;23.316;2023-03-14T04:02:14;94502.13;;;0.90;77.08
35778;BME280;21899;42.662;23.316;2023-03-14T04:04:39;94497.94;;;0.89;77.23
35778;BME280;21899;42.662;23.316;2023-03-14T04:07:05;94497.94;;;0.89;77.31
35778;BME280;21899;42.662;23.316;2023-03-14T04:09:31;94511.38;;;0.96;77.83
35778;BME280;21899;42.662;23.316;2023-03-14T04:11:56;94497.94;;;0.89;77.37
35778;BME280;21899;42.662;23.316;2023-03-14T04:14:23;94508.72;;;0.96;78.05
35778;BME280;21899;42.662;23.316;2023-03-14T04:16:48;94504.56;;;0.95;77.49
35778;BME280;21899;42.662;23.316;2023-03-14T04:19:14;94497.94;;;0.89;77.39
35778;BME280;21899;42.662;23.316;2023-03-14T04:21:39;94497.31;;;0.92;77.45
35778;BME280;21899;42.662;23.316;2023-03-14T04:24:09;94489.41;;;0.92;78.08
35778;BME280;21899;42.662;23.316;2023-03-14T04:26:35;94488.28;;;0.93;78.57
35778;BME280;21899;42.662;23.316;2023-03-14T04:29:00;94475.00;;;0.89;78.61
35778;BME280;21899;42.662;23.316;2023-03-14T04:31:25;94479.63;;;0.92;78.83
35778;BME280;21899;42.662;23.316;2023-03-14T04:33:51;94484.13;;;0.92;78.63
35778;BME280;21899;42.662;23.316;2023-03-14T04:36:16;94482.84;;;0.98;78.56
35778;BME280;21899;42.662;23.316;2023-03-14T04:38:41;94479.44;;;0.97;78.41
35778;BME280;21899;42.662;23.316;2023-03-14T04:41:07;94470.75;;;0.97;78.82
35778;BME280;21899;42.662;23.316;2023-03-14T04:43:33;94460.88;;;0.94;78.76
35778;BME280;21899;42.662;23.316;2023-03-14T04:45:58;94462.41;;;0.95;78.75
35778;BME280;21899;42.662;23.316;2023-03-14T04:48:25;94471.78;;;1.04;78.42
35778;BME280;21899;42.662;23.316;2023-03-14T04:50:51;94459.38;;;1.05;78.56
35778;BME280;21899;42.662;23.316;2023-03-14T04:53:17;94439.53;;;0.87;78.63
35778;BME280;21899;42.662;23.316;2023-03-14T04:55:48;94458.28;;;1.06;78.37
35778;BME280;21899;42.662;23.316;2023-03-14T04:58:14;94452.47;;;1.12;78.67
35778;BME280;21899;42.662;23.316;2023-03-14T05:00:39;94449.56;;;1.14;78.55
35778;BME280;21899;42.662;23.316;2023-03-14T05:03:04;94441.19;;;1.12;78.23
35778;BME280;21899;42.662;23.316;2023-03-14T05:05:30;94454.41;;;1.24;77.89
35778;BME280;21899;42.662;23.316;2023-03-14T05:07:55;94449.72;;;1.29;76.69
35778;BME280;21899;42.662;23.316;2023-03-14T05:10:21;94448.09;;;1.37;76.38
35778;BME280;21899;42.662;23.316;2023-03-14T05:12:46;94452.72;;;1.40;76.43
35778;BME280;21899;42.662;23.316;2023-03-14T05:15:11;94446.28;;;1.50;75.71
35778;BME280;21899;42.662;23.316;2023-03-14T05:17:37;94448.94;;;1.62;75.57
35778;BME280;21899;42.662;23.316;2023-03-14T05:20:03;94455.13;;;1.78;75.05
35778;BME280;21899;42.662;23.316;2023-03-14T05:22:34;94446.69;;;1.84;74.40
35778;BME280;21899;42.662;23.316;2023-03-14T05:24:59;94441.88;;;1.98;74.33
35778;BME280;21899;42.662;23.316;2023-03-14T05:27:25;94444.50;;;2.10;73.14
35778;BME280;21899;42.662;23.316;2023-03-14T05:29:50;94451.56;;;2.18;71.25
35778;BME280;21899;42.662;23.316;2023-03-14T05:32:15;94441.44;;;2.32;70.21
35778;BME280;21899;42.662;23.316;2023-03-14T05:34:41;94440.34;;;2.45;70.17
35778;BME280;21899;42.662;23.316;2023-03-14T05:37:07;94435.47;;;2.59;69.37
35778;BME280;21899;42.662;23.316;2023-03-14T05:39:33;94439.19;;;2.83;67.28
35778;BME280;21899;42.662;23.316;2023-03-14T05:41:58;94446.69;;;2.81;67.05
35778;BME280;21899;42.662;23.316;2023-03-14T05:44:24;94443.50;;;2.75;67.11
35778;BME280;21899;42.662;23.316;2023-03-14T05:46:49;94438.41;;;2.82;66.43
35778;BME280;21899;42.662;23.316;2023-03-14T05:49:14;94447.19;;;2.98;66.45
35778;BME280;21899;42.662;23.316;2023-03-14T05:51:40;94451.06;;;3.01;65.68
35778;BME280;21899;42.662;23.316;2023-03-14T05:54:05;94452.34;;;3.07;65.69
35778;BME280;21899;42.662;23.316;2023-03-14T05:56:32;94442.94;;;3.21;65.45
35778;BME280;21899;42.662;23.316;2023-03-14T05:58:57;94435.00;;;3.21;64.50
35778;BME280;21899;42.662;23.316;2023-03-14T06:01:23;94451.91;;;3.32;64.34
35778;BME280;21899;42.662;23.316;2023-03-14T06:03:48;94439.22;;;3.38;63.41
35778;BME280;21899;42.662;23.316;2023-03-14T06:06:13;94440.69;;;3.35;63.24
35778;BME280;21899;42.662;23.316;2023-03-14T06:08:39;94440.69;;;3.35;63.11
35778;BME280;21899;42.662;23.316;2023-03-14T06:11:04;94444.47;;;3.50;63.21
35778;BME280;21899;42.662;23.316;2023-03-14T06:13:30;94437.69;;;3.64;62.98
35778;BME280;21899;42.662;23.316;2023-03-14T06:15:55;94438.72;;;3.75;62.60
35778;BME280;21899;42.662;23.316;2023-03-14T06:18:21;94435.06;;;3.80;63.25
35778;BME280;21899;42.662;23.316;2023-03-14T06:20:46;94438.81;;;3.79;62.50
35778;BME280;21899;42.662;23.316;2023-03-14T06:23:12;94438.91;;;3.82;62.22
35778;BME280;21899;42.662;23.316;2023-03-14T06:25:37;94439.69;;;3.83;61.52
35778;BME280;21899;42.662;23.316;2023-03-14T06:28:03;94437.78;;;3.83;61.25
35778;BME280;21899;42.662;23.316;2023-03-14T06:30:28;94446.53;;;3.99;61.09
35778;BME280;21899;42.662;23.316;2023-03-14T06:32:54;94449.84;;;4.12;60.14
35778;BME280;21899;42.662;23.316;2023-03-14T06:35:21;94455.91;;;4.28;58.75
35778;BME280;21899;42.662;23.316;2023-03-14T06:37:46;94452.41;;;4.40;57.90
35778;BME280;21899;42.662;23.316;2023-03-14T06:40:12;94441.28;;;4.50;56.91
35778;BME280;21899;42.662;23.316;2023-03-14T06:42:46;94448.31;;;4.58;56.25
35778;BME280;21899;42.662;23.316;2023-03-14T06:45:11;94431.09;;;4.67;56.60
35778;BME280;21899;42.662;23.316;2023-03-14T06:47:37;94429.00;;;4.76;54.99
35778;BME280;21899;42.662;23.316;2023-03-14T06:50:04;94424.56;;;4.80;56.87
35778;BME280;21899;42.662;23.316;2023-03-14T06:52:30;94429.34;;;4.90;54.98
35778;BME280;21899;42.662;23.316;2023-03-14T06:54:55;94418.94;;;5.01;54.62
35778;BME280;21899;42.662;23.316;2023-03-14T06:57:20;94416.22;;;5.16;54.42
35778;BME280;21899;42.662;23.316;2023-03-14T06:59:46;94414.56;;;5.08;54.71
35778;BME280;21899;42.662;23.316;2023-03-14T07:02:12;94416.63;;;4.99;53.92
35778;BME280;21899;42.662;23.316;2023-03-14T07:04:38;94411.31;;;4.99;55.16
35778;BME280;21899;42.662;23.316;2023-03-14T07:07:04;94410.50;;;4.95;53.71
35778;BME280;21899;42.662;23.316;2023-03-14T07:09:29;94411.91;;;5.08;54.64
35778;BME280;21899;42.662;23.316;2023-03-14T07:11:55;94405.63;;;5.16;53.64
35778;BME280;21899;42.662;23.316;2023-03-14T07:14:20;94404.13;;;5.19;53.90
35778;BME280;21899;42.662;23.316;2023-03-14T07:16:46;94410.22;;;5.19;52.91
35778;BME280;21899;42.662;23.316;2023-03-14T07:19:11;94407.03;;;5.10;52.66
35778;BME280;21899;42.662;23.316;2023-03-14T07:21:36;94416.31;;;5.20;53.20
35778;BME280;21899;42.662;23.316;2023-03-14T07:24:02;94404.78;;;5.31;53.30
35778;BME280;21899;42.662;23.316;2023-03-14T07:26:27;94400.00;;;5.41;52.30
35778;BME280;21899;42.662;23.316;2023-03-14T07:28:53;94410.56;;;5.56;51.44
35778;BME280;21899;42.662;23.316;2023-03-14T07:31:18;94399.06;;;5.49;51.43
35778;BME280;21899;42.662;23.316;2023-03-14T07:33:44;94392.28;;;5.74;51.82
35778;BME280;21899;42.662;23.316;2023-03-14T07:36:09;94402.19;;;5.96;50.96
35778;BME280;21899;42.662;23.316;2023-03-14T07:38:35;94395.16;;;6.07;50.42
35778;BME280;21899;42.662;23.316;2023-03-14T07:41:01;94389.47;;;6.31;49.79
35778;BME280;21899;42.662;23.316;2023-03-14T07:43:28;94380.69;;;6.53;49.87
35778;BME280;21899;42.662;23.316;2023-03-14T07:45:53;94380.19;;;6.70;48.16
35778;BME280;21899;42.662;23.316;2023-03-14T07:48:19;94365.91;;;6.82;47.34
35778;BME280;21899;42.662;23.316;2023-03-14T07:50:48;94374.13;;;6.73;47.23
35778;BME280;21899;42.662;23.316;2023-03-14T07:53:14;94383.03;;;6.58;46.84
35778;BME280;21899;42.662;23.316;2023-03-14T07:55:39;94375.66;;;6.48;46.24
35778;BME280;21899;42.662;23.316;2023-03-14T07:58:05;94374.09;;;6.43;46.59
35778;BME280;21899;42.662;23.316;2023-03-14T08:00:31;94380.00;;;6.56;47.25
35778;BME280;21899;42.662;23.316;2023-03-14T08:02:56;94365.16;;;6.55;47.21
35778;BME280;21899;42.662;23.316;2023-03-14T08:05:22;94371.34;;;6.63;47.39
35778;BME280;21899;42.662;23.316;2023-03-14T08:07:47;94370.75;;;6.76;48.05
35778;BME280;21899;42.662;23.316;2023-03-14T08:10:13;94370.53;;;6.88;47.88
35778;BME280;21899;42.662;23.316;2023-03-14T08:12:46;94374.06;;;6.96;47.53
35778;BME280;21899;42.662;23.316;2023-03-14T08:15:11;94365.06;;;6.78;47.57
35778;BME280;21899;42.662;23.316;2023-03-14T08:17:36;94366.78;;;6.93;48.33
35778;BME280;21899;42.662;23.316;2023-03-14T08:20:02;94364.59;;;6.98;47.35
35778;BME280;21899;42.662;23.316;2023-03-14T08:22:31;94366.22;;;7.06;46.67
35778;BME280;21899;42.662;23.316;2023-03-14T08:24:57;94368.53;;;7.11;46.04
35778;BME280;21899;42.662;23.316;2023-03-14T08:27:22;94358.31;;;7.13;46.21
35778;BME280;21899;42.662;23.316;2023-03-14T08:29:47;94368.03;;;7.32;45.71
35778;BME280;21899;42.662;23.316;2023-03-14T08:32:13;94353.59;;;7.33;45.76
35778;BME280;21899;42.662;23.316;2023-03-14T08:34:38;94359.78;;;7.40;45.66
35778;BME280;21899;42.662;23.316;2023-03-14T08:37:05;94347.34;;;7.51;44.94
35778;BME280;21899;42.662;23.316;2023-03-14T08:39:30;94357.84;;;7.77;44.93
35778;BME280;21899;42.662;23.316;2023-03-14T08:41:56;94353.91;;;8.01;44.10
35778;BME280;21899;42.662;23.316;2023-03-14T08:44:21;94343.97;;;7.98;44.28
35778;BME280;21899;42.662;23.316;2023-03-14T08:46:46;94341.75;;;8.07;43.48
35778;BME280;21899;42.662;23.316;2023-03-14T08:49:12;94335.75;;;8.21;44.29
35778;BME280;21899;42.662;23.316;2023-03-14T08:51:38;94339.78;;;8.44;43.61
35778;BME280;21899;42.662;23.316;2023-03-14T08:54:03;94331.09;;;8.58;42.88
35778;BME280;21899;42.662;23.316;2023-03-14T08:56:28;94319.78;;;8.82;42.53
35778;BME280;21899;42.662;23.316;2023-03-14T08:58:54;94324.44;;;8.95;41.42
35778;BME280;21899;42.662;23.316;2023-03-14T09:01:19;94318.72;;;8.97;40.89
35778;BME280;21899;42.662;23.316;2023-03-14T09:03:45;94303.03;;;8.88;40.92
35778;BME280;21899;42.662;23.316;2023-03-14T09:06:12;94302.66;;;8.86;41.65
35778;BME280;21899;42.662;23.316;2023-03-14T09:08:37;94298.47;;;8.85;41.44
35778;BME280;21899;42.662;23.316;2023-03-14T09:11:03;94303.84;;;8.99;40.72
35778;BME280;21899;42.662;23.316;2023-03-14T09:13:28;94298.59;;;9.17;40.46
35778;BME280;21899;42.662;23.316;2023-03-14T09:15:55;94289.47;;;9.25;40.72
35778;BME280;21899;42.662;23.316;2023-03-14T09:18:21;94289.13;;;9.51;40.06
35778;BME280;21899;42.662;23.316;2023-03-14T09:20:48;94279.97;;;9.52;39.19
35778;BME280;21899;42.662;23.316;2023-03-14T09:23:13;94278.88;;;9.78;38.87
35778;BME280;21899;42.662;23.316;2023-03-14T09:25:39;94271.63;;;10.03;37.69
35778;BME280;21899;42.662;23.316;2023-03-14T09:28:04;94272.41;;;10.24;37.68
35778;BME280;21899;42.662;23.316;2023-03-14T09:30:29;94260.13;;;10.41;36.60
35778;BME280;21899;42.662;23.316;2023-03-14T09:32:55;94258.19;;;10.48;35.78
35778;BME280;21899;42.662;23.316;2023-03-14T09:35:20;94238.31;;;10.49;35.42
35778;BME280;21899;42.662;23.316;2023-03-14T09:37:46;94249.38;;;10.66;35.66
35778;BME280;21899;42.662;23.316;2023-03-14T09:40:18;94240.56;;;10.72;34.98
35778;BME280;21899;42.662;23.316;2023-03-14T09:42:48;94232.91;;;10.71;35.36
35778;BME280;21899;42.662;23.316;2023-03-14T09:45:23;94232.88;;;10.78;35.64
35778;BME280;21899;42.662;23.316;2023-03-14T09:47:50;94239.78;;;10.72;35.44
35778;BME280;21899;42.662;23.316;2023-03-14T09:50:16;94228.19;;;10.96;35.05
35778;BME280;21899;42.662;23.316;2023-03-14T09:52:48;94225.78;;;11.22;34.42
35778;BME280;21899;42.662;23.316;2023-03-14T09:55:18;94214.16;;;11.43;34.21
35778;BME280;21899;42.662;23.316;2023-03-14T09:57:45;94204.88;;;11.65;33.70
35778;BME280;21899;42.662;23.316;2023-03-14T10:00:15;94214.28;;;11.80;33.90
35778;BME280;21899;42.662;23.316;2023-03-14T10:02:53;94205.53;;;11.76;33.45
35778;BME280;21899;42.662;23.316;2023-03-14T10:05:21;94198.59;;;11.78;33.63
35778;BME280;21899;42.662;23.316;2023-03-14T10:07:47;94195.41;;;11.94;33.43
35778;BME280;21899;42.662;23.316;2023-03-14T10:10:31;94180.84;;;11.95;33.88
35778;BME280;21899;42.662;23.316;2023-03-14T10:15:41;94187.19;;;12.52;33.50
35778;BME280;21899;42.662;23.316;2023-03-14T10:18:14;94176.44;;;12.52;33.07
35778;BME280;21899;42.662;23.316;2023-03-14T10:20:43;94175.63;;;12.55;32.52
35778;BME280;21899;42.662;23.316;2023-03-14T10:25:40;94157.84;;;12.68;32.93
35778;BME280;21899;42.662;23.316;2023-03-14T10:28:23;94153.78;;;12.87;32.52
35778;BME280;21899;42.662;23.316;2023-03-14T10:30:49;94142.00;;;13.07;32.29
35778;BME280;21899;42.662;23.316;2023-03-14T10:33:24;94148.22;;;13.01;32.06
35778;BME280;21899;42.662;23.316;2023-03-14T10:38:23;94129.19;;;12.88;32.68
35778;BME280;21899;42.662;23.316;2023-03-14T10:40:51;94121.56;;;12.83;33.19
35778;BME280;21899;42.662;23.316;2023-03-14T10:43:33;94110.50;;;13.08;33.60
35778;BME280;21899;42.662;23.316;2023-03-14T10:46:05;94110.81;;;13.14;32.74
35778;BME280;21899;42.662;23.316;2023-03-14T10:48:34;94101.34;;;13.05;33.33
35778;BME280;21899;42.662;23.316;2023-03-14T10:51:04;94102.91;;;13.30;33.42
35778;BME280;21899;42.662;23.316;2023-03-14T10:56:07;94077.84;;;13.36;33.45
35778;BME280;21899;42.662;23.316;2023-03-14T10:58:41;94072.09;;;13.57;33.38
35778;BME280;21899;42.662;23.316;2023-03-14T11:06:59;94068.88;;;13.20;34.39
35778;BME280;21899;42.662;23.316;2023-03-14T11:12:36;94054.16;;;13.28;34.83
35778;BME280;21899;42.662;23.316;2023-03-14T11:17:47;94019.59;;;13.72;34.04
35778;BME280;21899;42.662;23.316;2023-03-14T11:20:32;94017.91;;;14.01;33.65
35778;BME280;21899;42.662;23.316;2023-03-14T11:26:37;94009.66;;;14.48;32.67
35778;BME280;21899;42.662;23.316;2023-03-14T11:32:00;93993.66;;;14.21;33.08
35778;BME280;21899;42.662;23.316;2023-03-14T11:34:40;93986.06;;;14.16;33.43
35778;BME280;21899;42.662;23.316;2023-03-14T11:39:48;93979.84;;;14.38;32.32
35778;BME280;21899;42.662;23.316;2023-03-14T11:42:17;93979.34;;;14.44;32.01
35778;BME280;21899;42.662;23.316;2023-03-14T11:44:46;93973.28;;;14.39;31.60
35778;BME280;21899;42.662;23.316;2023-03-14T11:47:37;93960.72;;;14.33;32.13
35778;BME280;21899;42.662;23.316;2023-03-14T11:50:16;93958.09;;;14.49;32.19
35778;BME280;21899;42.662;23.316;2023-03-14T11:52:55;93957.44;;;14.77;32.07
35778;BME280;21899;42.662;23.316;2023-03-14T11:55:31;93950.13;;;14.94;31.69
35778;BME280;21899;42.662;23.316;2023-03-14T12:00:38;93947.47;;;15.22;30.79
35778;BME280;21899;42.662;23.316;2023-03-14T12:03:29;93944.09;;;15.34;30.62
35778;BME280;21899;42.662;23.316;2023-03-14T12:08:53;93925.53;;;15.52;30.47
35778;BME280;21899;42.662;23.316;2023-03-14T12:11:48;93922.03;;;15.68;30.62
35778;BME280;21899;42.662;23.316;2023-03-14T12:14:36;93919.69;;;15.83;30.00
35778;BME280;21899;42.662;23.316;2023-03-14T12:17:22;93905.16;;;15.93;29.89
35778;BME280;21899;42.662;23.316;2023-03-14T12:20:44;93900.19;;;15.91;30.05
35778;BME280;21899;42.662;23.316;2023-03-14T12:25:18;93890.47;;;15.52;29.63
35778;BME280;21899;42.662;23.316;2023-03-14T12:27:48;93892.00;;;15.53;29.69
35778;BME280;21899;42.662;23.316;2023-03-14T12:30:38;93894.19;;;15.71;29.95
35778;BME280;21899;42.662;23.316;2023-03-14T12:35:43;93879.47;;;16.01;29.37
35778;BME280;21899;42.662;23.316;2023-03-14T12:38:27;93870.81;;;16.06;29.68
35778;BME280;21899;42.662;23.316;2023-03-14T12:43:27;93858.28;;;16.12;29.02
35778;BME280;21899;42.662;23.316;2023-03-14T12:48:46;93855.25;;;15.85;28.56
35778;BME280;21899;42.662;23.316;2023-03-14T12:59:14;93836.16;;;16.29;28.50
35778;BME280;21899;42.662;23.316;2023-03-14T13:01:54;93822.88;;;16.47;28.34
35778;BME280;21899;42.662;23.316;2023-03-14T13:04:27;93818.56;;;16.50;27.99
35778;BME280;21899;42.662;23.316;2023-03-14T13:06:54;93820.94;;;16.23;28.67
35778;BME280;21899;42.662;23.316;2023-03-14T13:12:18;93811.31;;;15.97;28.67
35778;BME280;21899;42.662;23.316;2023-03-14T13:14:49;93804.97;;;16.16;28.78
35778;BME280;21899;42.662;23.316;2023-03-14T13:17:26;93798.38;;;16.29;28.76
35778;BME280;21899;42.662;23.316;2023-03-14T13:19:54;93805.91;;;16.47;28.23
35778;BME280;21899;42.662;23.316;2023-03-14T13:22:24;93787.78;;;16.47;27.99
35778;BME280;21899;42.662;23.316;2023-03-14T13:25:02;93780.06;;;16.58;27.50
35778;BME280;21899;42.662;23.316;2023-03-14T13:27:30;93781.28;;;16.57;27.60
35778;BME280;21899;42.662;23.316;2023-03-14T13:29:56;93774.34;;;16.44;27.57
35778;BME280;21899;42.662;23.316;2023-03-14T13:32:26;93768.53;;;16.33;27.57
35778;BME280;21899;42.662;23.316;2023-03-14T13:34:57;93771.00;;;16.40;27.57
35778;BME280;21899;42.662;23.316;2023-03-14T13:37:25;93757.19;;;16.50;27.36
35778;BME280;21899;42.662;23.316;2023-03-14T13:39:53;93750.84;;;16.66;27.47
35778;BME280;21899;42.662;23.316;2023-03-14T13:42:20;93751.72;;;16.63;26.82
35778;BME280;21899;42.662;23.316;2023-03-14T13:44:46;93734.94;;;16.34;26.71
35778;BME280;21899;42.662;23.316;2023-03-14T13:47:17;93731.59;;;16.30;27.38
35778;BME280;21899;42.662;23.316;2023-03-14T13:49:43;93723.59;;;16.26;27.10
35778;BME280;21899;42.662;23.316;2023-03-14T13:52:28;93730.28;;;16.47;27.18
35778;BME280;21899;42.662;23.316;2023-03-14T13:54:55;93718.06;;;16.42;26.62
35778;BME280;21899;42.662;23.316;2023-03-14T13:57:20;93721.09;;;16.32;26.89
35778;BME280;21899;42.662;23.316;2023-03-14T14:00:05;93713.72;;;16.11;27.16
35778;BME280;21899;42.662;23.316;2023-03-14T14:02:35;93697.22;;;15.96;27.55
35778;BME280;21899;42.662;23.316;2023-03-14T14:05:01;93695.59;;;15.99;28.04
35778;BME280;21899;42.662;23.316;2023-03-14T14:07:27;93697.75;;;15.91;27.48